createdAt,value
2023-05-10T00:04:35.090Z,52.06
2023-05-10T00:09:36.705Z,52.04
2023-05-10T00:14:38.287Z,52.29
2023-05-10T00:19:39.882Z,52.47
2023-05-10T00:24:41.468Z,52.68
2023-05-10T00:29:43.088Z,53.37
2023-05-10T00:34:44.699Z,53.80
2023-05-10T00:39:47.210Z,53.54
2023-05-10T00:44:49.023Z,53.80
2023-05-10T00:49:51.314Z,53.91
2023-05-10T00:54:53.777Z,54.54
2023-05-10T00:59:55.426Z,54.96
2023-05-10T01:04:57.149Z,55.21
2023-05-10T01:09:59.045Z,54.83
2023-05-10T01:15:02.554Z,54.30
2023-05-10T01:20:04.711Z,54.78
2023-05-10T01:25:27.737Z,54.91
2023-05-10T01:30:48.009Z,55.80
2023-05-10T01:36:18.677Z,55.40
2023-05-10T01:41:20.214Z,55.54
2023-05-10T01:46:34.097Z,56.40
2023-05-10T01:51:52.660Z,56.18
2023-05-10T01:57:01.135Z,55.83
2023-05-10T02:02:05.356Z,56.35
2023-05-10T02:07:07.987Z,56.40
2023-05-10T02:12:10.471Z,56.28
2023-05-10T02:17:12.890Z,57.06
2023-05-10T02:22:17.200Z,57.02
2023-05-10T02:27:21.022Z,57.41
2023-05-10T02:32:25.532Z,57.76
2023-05-10T02:37:28.415Z,57.04
2023-05-10T02:42:33.684Z,58.21
2023-05-10T02:47:35.506Z,58.89
2023-05-10T02:52:45.356Z,59.75
2023-05-10T02:57:55.010Z,60.06
2023-05-10T03:02:56.766Z,60.46
2023-05-10T03:07:58.623Z,60.93
2023-05-10T03:13:14.036Z,61.28
2023-05-10T03:18:24.338Z,61.16
2023-05-10T03:23:42.112Z,61.83
2023-05-10T03:28:45.354Z,62.59
2023-05-10T03:33:50.987Z,62.70
2023-05-10T03:38:57.972Z,62.74
2023-05-10T03:44:00.183Z,62.82
2023-05-10T03:49:01.879Z,63.10
2023-05-10T03:54:03.794Z,63.63
2023-05-10T03:59:08.426Z,63.15
2023-05-10T04:04:10.928Z,63.79
2023-05-10T04:09:12.841Z,64.09
2023-05-10T04:14:14.566Z,63.50
2023-05-10T04:19:16.163Z,63.40
2023-05-10T04:24:17.790Z,63.13
2023-05-10T04:29:19.446Z,62.60
2023-05-10T04:34:22.274Z,63.41
2023-05-10T04:39:23.909Z,62.35
2023-05-10T04:44:25.562Z,62.17
2023-05-10T04:49:27.194Z,60.52
2023-05-10T04:54:28.787Z,60.36
2023-05-10T04:59:32.718Z,60.30
2023-05-10T05:04:34.403Z,59.66
2023-05-10T05:09:36.071Z,58.86
2023-05-10T05:14:37.651Z,58.61
2023-05-10T05:19:39.334Z,57.13
2023-05-10T05:24:40.930Z,57.76
2023-05-10T05:29:42.528Z,57.19
2023-05-10T05:34:46.242Z,56.80
2023-05-10T05:39:48.261Z,57.11
2023-05-10T05:45:09.888Z,57.18
2023-05-10T05:50:11.657Z,55.13
2023-05-10T05:55:13.783Z,53.46
2023-05-10T06:00:15.698Z,52.91
2023-05-10T06:05:17.611Z,51.17
2023-05-10T06:10:19.472Z,49.48
2023-05-10T06:15:21.393Z,48.09
2023-05-10T06:20:23.005Z,46.96
2023-05-10T06:25:24.738Z,46.06
2023-05-10T06:30:30.489Z,47.17
2023-05-10T06:35:34.418Z,45.25
2023-05-10T06:40:36.952Z,45.58
2023-05-10T06:45:38.584Z,43.61
2023-05-10T06:50:40.231Z,44.95
2023-05-10T06:55:42.063Z,45.17
2023-05-10T07:00:44.771Z,44.77
2023-05-10T07:05:47.597Z,43.75
2023-05-10T07:10:49.237Z,42.92
2023-05-10T07:15:50.869Z,44.69
2023-05-10T07:20:52.630Z,43.21
2023-05-10T07:25:54.504Z,42.84
2023-05-10T07:30:56.297Z,43.26
2023-05-10T07:35:58.342Z,42.88
2023-05-10T07:40:59.915Z,42.01
2023-05-10T07:46:02.100Z,41.61
2023-05-10T07:51:03.750Z,43.18
2023-05-10T07:56:45.750Z,41.64
2023-05-10T08:01:47.448Z,41.54
2023-05-10T08:06:49.035Z,42.33
2023-05-10T08:11:51.686Z,43.23
2023-05-10T08:16:53.372Z,41.53
2023-05-10T08:21:56.576Z,42.11
2023-05-10T08:26:58.374Z,43.05
2023-05-10T08:31:59.963Z,40.85
2023-05-10T08:37:01.561Z,39.98
2023-05-10T08:42:05.568Z,41.64
2023-05-10T08:47:10.690Z,42.28
2023-05-10T08:52:15.573Z,40.05
2023-05-10T08:57:17.293Z,41.52
2023-05-10T09:02:19.889Z,38.91
2023-05-10T09:07:21.523Z,42.34
2023-05-10T09:12:24.052Z,41.47
2023-05-10T09:17:26.796Z,39.44
2023-05-10T09:22:28.535Z,38.60
2023-05-10T09:27:30.401Z,39.83
2023-05-10T09:32:42.487Z,40.29
2023-05-10T09:37:47.178Z,38.31
2023-05-10T09:42:57.533Z,38.90
2023-05-10T09:48:00.487Z,39.43
2023-05-10T09:53:04.498Z,39.21
2023-05-10T09:58:11.132Z,35.73
2023-05-10T10:03:18.017Z,38.29
2023-05-10T10:08:20.072Z,37.06
2023-05-10T10:13:21.925Z,39.71
2023-05-10T10:18:28.067Z,38.23
2023-05-10T10:23:30.100Z,37.82
2023-05-10T10:28:46.375Z,39.12
2023-05-10T10:34:00.383Z,39.77
2023-05-10T10:39:04.011Z,38.71
2023-05-10T10:50:28.731Z,40.20
2023-05-10T10:55:31.319Z,38.34
2023-05-10T11:00:36.196Z,38.19
2023-05-10T11:05:44.715Z,36.95
2023-05-10T11:10:53.368Z,37.83
2023-05-10T11:15:55.086Z,39.15
2023-05-10T11:21:00.864Z,38.52
2023-05-10T11:26:03.383Z,38.68
2023-05-10T11:31:05.463Z,36.92
2023-05-10T11:36:12.213Z,36.45
2023-05-10T11:41:14.655Z,36.57
2023-05-10T11:46:18.926Z,35.87
2023-05-10T11:51:22.268Z,37.10
2023-05-10T11:56:24.683Z,37.14
2023-05-10T12:01:28.020Z,36.67
2023-05-10T12:06:32.815Z,37.17
2023-05-10T12:11:44.662Z,36.33
2023-05-10T12:16:46.700Z,37.97
2023-05-10T12:21:53.480Z,38.08
2023-05-10T12:26:55.288Z,36.13
2023-05-10T12:32:01.314Z,38.49
2023-05-10T12:37:08.451Z,36.85
2023-05-10T12:42:11.557Z,37.50
2023-05-10T12:47:13.226Z,37.17
2023-05-10T12:52:16.914Z,37.18
2023-05-10T12:57:18.515Z,37.59
2023-05-10T13:02:21.049Z,35.67
2023-05-10T13:07:22.638Z,35.67
2023-05-10T13:12:25.310Z,36.90
2023-05-10T13:17:27.289Z,36.68
2023-05-10T13:22:39.731Z,35.95
2023-05-10T13:27:42.033Z,37.35
2023-05-10T13:32:43.647Z,35.92
2023-05-10T13:37:45.318Z,37.50
2023-05-10T13:42:46.953Z,38.13
2023-05-10T13:47:48.583Z,40.12
2023-05-10T13:52:50.436Z,36.46
2023-05-10T13:57:54.189Z,43.06
2023-05-10T14:02:55.883Z,45.43
2023-05-10T14:07:58.248Z,45.93
2023-05-10T14:13:00.083Z,47.12
2023-05-10T14:18:02.036Z,46.31
2023-05-10T14:23:04.154Z,45.61
2023-05-10T14:28:05.999Z,45.99
2023-05-10T14:33:08.786Z,45.36
2023-05-10T14:38:11.715Z,47.41
2023-05-10T14:43:13.376Z,47.47
2023-05-10T14:48:18.184Z,49.72
2023-05-10T14:53:19.757Z,51.16
2023-05-10T14:58:21.339Z,52.86
2023-05-10T15:03:23.555Z,53.14
2023-05-10T15:08:25.850Z,55.20
2023-05-10T15:13:27.488Z,54.56
2023-05-10T15:18:29.093Z,55.03
2023-05-10T15:23:30.952Z,54.26
2023-05-10T15:28:34.292Z,54.63
2023-05-10T15:33:38.998Z,54.03
2023-05-10T15:38:41.001Z,57.11
2023-05-10T15:43:42.662Z,56.13
2023-05-10T15:48:44.462Z,56.59
2023-05-10T15:54:00.416Z,57.68
2023-05-10T15:59:08.721Z,58.48
2023-05-10T16:04:10.350Z,60.03
2023-05-10T16:09:12.042Z,60.21
2023-05-10T16:14:13.731Z,60.08
2023-05-10T16:19:16.124Z,60.15
2023-05-10T16:24:17.919Z,61.06
2023-05-10T16:29:19.576Z,60.80
2023-05-10T16:34:24.205Z,60.90
2023-05-10T16:39:26.197Z,59.75
2023-05-10T16:44:28.286Z,60.28
2023-05-10T16:49:29.951Z,60.80
2023-05-10T16:54:31.524Z,61.26
2023-05-10T16:59:33.128Z,61.33
2023-05-10T17:04:34.998Z,61.21
2023-05-10T17:09:36.673Z,61.30
2023-05-10T17:14:38.768Z,63.02
2023-05-10T17:19:40.548Z,62.32
2023-05-10T17:24:42.188Z,62.73
2023-05-10T17:29:43.902Z,61.75
2023-05-10T17:34:45.493Z,65.16
2023-05-10T17:39:47.089Z,65.67
2023-05-10T17:44:48.682Z,67.10
2023-05-10T17:49:50.434Z,70.33
2023-05-10T17:54:52.424Z,70.32
2023-05-10T17:59:54.127Z,72.20
2023-05-10T18:04:59.046Z,71.69
2023-05-10T18:10:01.505Z,71.04
2023-05-10T18:15:03.279Z,71.96
2023-05-10T18:20:06.125Z,73.10
2023-05-10T18:25:08.242Z,73.50
2023-05-10T18:30:12.256Z,74.64
2023-05-10T18:35:14.361Z,73.63
2023-05-10T18:40:17.508Z,72.50
2023-05-10T18:45:23.292Z,73.71
2023-05-10T18:50:59.010Z,74.92
2023-05-10T18:55:59.547Z,74.90
2023-05-10T19:01:03.707Z,75.84
2023-05-10T19:06:05.313Z,76.67
2023-05-10T19:11:06.919Z,75.64
2023-05-10T19:16:14.810Z,75.76
2023-05-10T19:21:17.219Z,75.57
2023-05-10T19:26:19.384Z,76.09
2023-05-10T19:31:21.851Z,78.11
2023-05-10T19:36:23.609Z,77.17
2023-05-10T19:41:25.535Z,78.37
2023-05-10T19:46:27.654Z,79.44
2023-05-10T19:51:29.318Z,78.62
2023-05-10T19:56:31.084Z,81.06
2023-05-10T20:01:33.531Z,82.96
2023-05-10T20:06:35.860Z,83.47
2023-05-10T20:11:37.519Z,81.59
2023-05-10T20:16:39.272Z,83.73
2023-05-10T20:21:41.107Z,84.45
2023-05-10T20:26:42.795Z,87.38
2023-05-10T20:31:44.516Z,87.96
2023-05-10T20:36:46.195Z,87.80
2023-05-10T20:41:48.043Z,90.46
2023-05-10T20:46:49.703Z,90.03
2023-05-10T20:51:51.557Z,90.04
2023-05-10T20:56:53.389Z,89.66
2023-05-10T21:01:55.943Z,90.85
2023-05-10T21:06:57.722Z,91.74
2023-05-10T21:11:59.459Z,92.50
2023-05-10T21:17:01.480Z,92.54
2023-05-10T21:22:03.431Z,92.21
2023-05-10T21:27:05.083Z,94.48
2023-05-10T21:32:06.756Z,96.60
2023-05-10T21:37:08.440Z,97.32
2023-05-10T21:42:10.056Z,98.40
2023-05-10T21:47:11.713Z,97.93
2023-05-10T21:52:13.319Z,98.84
2023-05-10T21:57:14.987Z,98.92
2023-05-10T22:02:16.654Z,100.00
2023-05-10T22:07:18.494Z,98.86
2023-05-10T22:12:20.301Z,100.00
2023-05-10T22:17:21.933Z,100.00
2023-05-10T22:22:23.650Z,100.00
2023-05-10T22:27:25.241Z,100.00
2023-05-10T22:32:31.534Z,100.00
2023-05-10T22:37:33.224Z,100.00
2023-05-10T22:42:34.886Z,100.00
2023-05-10T22:47:36.599Z,100.00
2023-05-10T22:52:39.347Z,100.00
2023-05-10T22:57:41.029Z,100.00
2023-05-10T23:02:43.188Z,100.00
2023-05-10T23:07:44.866Z,100.00
2023-05-10T23:12:46.460Z,100.00
2023-05-10T23:17:48.121Z,100.00
2023-05-10T23:22:49.749Z,100.00
2023-05-10T23:27:51.532Z,100.00
2023-05-10T23:32:53.161Z,100.00
2023-05-10T23:37:55.078Z,100.00
2023-05-10T23:42:56.741Z,100.00
2023-05-10T23:47:58.446Z,100.00
2023-05-10T23:53:00.141Z,100.00
2023-05-10T23:58:01.743Z,100.00
